createdAt,value
2022-12-31T00:00:21.511Z,67.20
2022-12-31T00:02:48.563Z,67.10
2022-12-31T00:05:15.668Z,67.20
2022-12-31T00:10:08.779Z,67.20
2022-12-31T00:12:35.849Z,67.00
2022-12-31T00:15:03.592Z,66.90
2022-12-31T00:17:30.589Z,67.00
2022-12-31T00:19:57.621Z,66.90
2022-12-31T00:22:24.616Z,66.90
2022-12-31T00:24:51.581Z,66.80
2022-12-31T00:27:18.598Z,66.70
2022-12-31T00:29:45.741Z,66.60
2022-12-31T00:32:12.646Z,66.50
2022-12-31T00:34:39.564Z,66.30
2022-12-31T00:37:06.511Z,66.30
2022-12-31T00:39:33.436Z,66.30
2022-12-31T00:42:00.383Z,66.20
2022-12-31T00:44:27.280Z,66.10
2022-12-31T00:46:54.252Z,66.00
2022-12-31T00:49:21.177Z,65.90
2022-12-31T00:51:48.249Z,65.90
2022-12-31T00:54:15.202Z,65.90
2022-12-31T00:56:42.109Z,65.70
2022-12-31T00:59:09.004Z,65.70
2022-12-31T01:01:39.010Z,65.50
2022-12-31T01:04:13.303Z,65.40
2022-12-31T01:06:40.772Z,65.40
2022-12-31T01:09:08.554Z,65.40
2022-12-31T01:11:35.566Z,65.70
2022-12-31T01:14:08.545Z,65.80
2022-12-31T01:16:40.011Z,65.70
2022-12-31T01:19:10.394Z,65.80
2022-12-31T01:21:39.993Z,65.90
2022-12-31T01:24:08.123Z,65.90
2022-12-31T01:26:35.999Z,65.90
2022-12-31T01:29:03.267Z,65.90
2022-12-31T01:31:30.327Z,65.90
2022-12-31T01:33:58.163Z,66.00
2022-12-31T01:36:28.071Z,66.00
2022-12-31T01:38:57.293Z,66.10
2022-12-31T01:41:27.301Z,66.20
2022-12-31T01:44:00.267Z,66.30
2022-12-31T01:46:49.954Z,66.40
2022-12-31T01:49:19.839Z,66.70
2022-12-31T01:51:50.505Z,67.10
2022-12-31T01:54:19.743Z,67.40
2022-12-31T01:56:48.400Z,67.70
2022-12-31T01:59:18.433Z,68.00
2022-12-31T02:01:48.400Z,68.30
2022-12-31T02:04:16.424Z,68.40
2022-12-31T02:07:09.114Z,68.60
2022-12-31T02:09:41.907Z,69.00
2022-12-31T02:12:10.453Z,69.50
2022-12-31T02:14:41.778Z,69.80
2022-12-31T02:17:11.479Z,70.00
2022-12-31T02:20:08.867Z,70.40
2022-12-31T02:22:44.745Z,70.70
2022-12-31T02:25:11.777Z,70.90
2022-12-31T02:27:57.220Z,71.10
2022-12-31T02:30:25.347Z,71.40
2022-12-31T02:32:58.336Z,71.60
2022-12-31T02:35:33.584Z,71.80
2022-12-31T02:38:08.863Z,71.90
2022-12-31T02:40:38.184Z,72.10
2022-12-31T02:43:05.170Z,72.30
2022-12-31T02:45:40.797Z,72.60
2022-12-31T02:48:37.122Z,72.80
2022-12-31T02:51:39.269Z,72.90
2022-12-31T02:54:19.669Z,73.10
2022-12-31T02:56:58.884Z,73.10
2022-12-31T02:59:51.917Z,73.20
2022-12-31T03:02:20.071Z,73.10
2022-12-31T03:04:52.966Z,73.10
2022-12-31T03:07:24.430Z,73.00
2022-12-31T03:09:51.697Z,72.80
2022-12-31T03:12:41.188Z,72.70
2022-12-31T03:15:20.138Z,72.60
2022-12-31T03:18:01.536Z,72.60
2022-12-31T03:20:52.289Z,72.50
2022-12-31T03:24:06.487Z,72.50
2022-12-31T03:26:33.401Z,72.50
2022-12-31T03:29:00.348Z,72.50
2022-12-31T03:31:28.297Z,72.50
2022-12-31T03:33:55.235Z,72.50
2022-12-31T03:36:22.149Z,72.30
2022-12-31T03:38:52.748Z,72.10
2022-12-31T03:41:19.946Z,72.00
2022-12-31T03:43:46.851Z,71.70
2022-12-31T03:46:13.775Z,71.50
2022-12-31T03:48:40.831Z,71.40
2022-12-31T03:51:07.791Z,70.70
2022-12-31T03:53:35.744Z,70.40
2022-12-31T03:56:02.801Z,70.10
2022-12-31T03:58:29.884Z,69.80
2022-12-31T04:00:57.006Z,69.60
2022-12-31T04:03:23.952Z,69.40
2022-12-31T04:05:55.896Z,69.20
2022-12-31T04:08:23.106Z,68.90
2022-12-31T04:10:50.035Z,68.60
2022-12-31T04:13:16.879Z,68.40
2022-12-31T04:15:43.871Z,68.30
2022-12-31T04:18:10.952Z,68.20
2022-12-31T04:20:37.864Z,68.20
2022-12-31T04:23:04.720Z,68.20
2022-12-31T04:25:31.759Z,68.10
2022-12-31T04:27:58.672Z,68.20
2022-12-31T04:30:25.595Z,68.70
2022-12-31T04:32:52.485Z,68.70
2022-12-31T04:35:19.513Z,68.50
2022-12-31T04:37:46.499Z,68.50
2022-12-31T04:40:13.542Z,68.50
2022-12-31T04:42:40.473Z,68.50
2022-12-31T04:45:07.970Z,68.50
2022-12-31T04:47:34.924Z,68.50
2022-12-31T04:50:01.968Z,68.60
2022-12-31T04:52:28.845Z,68.80
2022-12-31T04:54:55.793Z,69.10
2022-12-31T04:57:22.708Z,69.10
2022-12-31T04:59:49.610Z,69.20
2022-12-31T05:02:16.672Z,69.20
2022-12-31T05:04:43.762Z,69.30
2022-12-31T05:07:10.680Z,69.50
2022-12-31T05:09:37.622Z,69.80
2022-12-31T05:12:04.781Z,69.70
2022-12-31T05:14:31.689Z,69.80
2022-12-31T05:16:59.328Z,69.80
2022-12-31T05:19:26.301Z,69.80
2022-12-31T05:22:11.770Z,69.80
2022-12-31T05:24:39.288Z,69.70
2022-12-31T05:27:06.339Z,69.60
2022-12-31T05:29:33.378Z,70.20
2022-12-31T05:32:01.324Z,69.10
2022-12-31T05:34:28.267Z,68.70
2022-12-31T05:36:55.148Z,68.30
2022-12-31T05:39:22.158Z,68.00
2022-12-31T05:41:49.024Z,67.80
2022-12-31T05:44:15.969Z,67.40
2022-12-31T05:46:43.820Z,67.30
2022-12-31T05:49:10.879Z,67.30
2022-12-31T05:51:37.812Z,67.30
2022-12-31T05:54:04.904Z,67.40
2022-12-31T05:56:32.616Z,67.40
2022-12-31T05:59:00.730Z,67.50
2022-12-31T06:01:27.669Z,67.60
2022-12-31T06:03:54.778Z,67.60
2022-12-31T06:06:21.855Z,67.50
2022-12-31T06:08:52.435Z,67.40
2022-12-31T06:11:19.409Z,67.20
2022-12-31T06:13:46.368Z,66.90
2022-12-31T06:16:13.879Z,66.80
2022-12-31T06:18:41.184Z,66.50
2022-12-31T06:21:08.127Z,66.40
2022-12-31T06:23:35.171Z,66.30
2022-12-31T06:26:05.838Z,65.90
2022-12-31T06:28:33.210Z,65.60
2022-12-31T06:31:02.134Z,65.50
2022-12-31T06:33:29.840Z,65.20
2022-12-31T06:36:02.171Z,65.20
2022-12-31T06:38:30.876Z,65.20
2022-12-31T06:40:57.794Z,65.10
2022-12-31T06:43:24.706Z,65.10
2022-12-31T06:45:51.603Z,65.00
2022-12-31T06:48:18.742Z,65.00
2022-12-31T06:50:45.659Z,64.60
2022-12-31T06:53:12.833Z,64.30
2022-12-31T06:55:40.046Z,64.10
2022-12-31T06:58:09.428Z,63.90
2022-12-31T07:00:37.245Z,63.80
2022-12-31T07:03:13.278Z,63.80
2022-12-31T07:05:58.788Z,63.80
2022-12-31T07:08:32.448Z,63.60
2022-12-31T07:11:16.576Z,63.60
2022-12-31T07:13:46.235Z,63.40
2022-12-31T07:16:55.539Z,63.20
2022-12-31T07:19:33.038Z,63.00
2022-12-31T07:22:00.314Z,62.60
2022-12-31T07:24:27.649Z,62.50
2022-12-31T07:27:28.296Z,62.40
2022-12-31T07:30:11.396Z,62.30
2022-12-31T07:33:02.514Z,62.20
2022-12-31T07:35:54.104Z,61.90
2022-12-31T07:38:38.745Z,61.60
2022-12-31T07:41:11.776Z,61.20
2022-12-31T07:43:53.432Z,61.10
2022-12-31T07:46:31.319Z,61.10
2022-12-31T07:48:59.162Z,61.00
2022-12-31T07:51:26.428Z,61.00
2022-12-31T07:53:53.539Z,60.40
2022-12-31T07:56:20.553Z,60.50
2022-12-31T07:59:03.409Z,60.30
2022-12-31T08:01:37.124Z,59.90
2022-12-31T08:04:11.375Z,59.80
2022-12-31T08:07:12.498Z,59.70
2022-12-31T08:09:56.593Z,59.50
2022-12-31T08:12:25.345Z,59.80
2022-12-31T08:14:52.722Z,59.00
2022-12-31T08:17:20.515Z,58.70
2022-12-31T08:19:47.801Z,58.40
2022-12-31T08:22:37.964Z,58.40
2022-12-31T08:25:24.223Z,58.30
2022-12-31T08:28:11.845Z,58.00
2022-12-31T08:30:50.545Z,57.60
2022-12-31T08:33:32.453Z,57.60
2022-12-31T08:36:16.966Z,57.40
2022-12-31T08:38:56.662Z,57.30
2022-12-31T08:41:40.693Z,57.20
2022-12-31T08:44:36.673Z,57.20
2022-12-31T08:47:45.975Z,57.00
2022-12-31T08:50:17.932Z,56.90
2022-12-31T08:57:07.422Z,57.10
2022-12-31T09:00:03.167Z,57.00
2022-12-31T09:02:51.773Z,57.10
2022-12-31T09:05:29.426Z,57.20
2022-12-31T09:08:14.578Z,57.40
2022-12-31T09:11:07.953Z,57.30
2022-12-31T09:13:51.641Z,56.90
2022-12-31T09:16:46.979Z,56.60
2022-12-31T09:19:13.930Z,56.50
2022-12-31T09:21:44.366Z,56.40
2022-12-31T09:24:15.770Z,56.20
2022-12-31T09:26:51.808Z,56.30
2022-12-31T09:29:41.633Z,56.50
2022-12-31T09:32:25.180Z,55.70
2022-12-31T09:35:11.268Z,55.60
2022-12-31T09:37:46.445Z,55.50
2022-12-31T09:40:28.552Z,55.40
2022-12-31T09:43:04.420Z,55.10
2022-12-31T09:45:52.577Z,55.20
2022-12-31T09:48:38.157Z,55.10
2022-12-31T09:51:31.354Z,54.90
2022-12-31T09:54:04.242Z,54.70
2022-12-31T09:56:45.446Z,54.60
2022-12-31T09:59:30.019Z,54.60
2022-12-31T10:02:14.550Z,54.60
2022-12-31T10:05:35.245Z,54.40
2022-12-31T10:08:28.347Z,54.20
2022-12-31T10:11:26.333Z,54.30
2022-12-31T10:13:59.510Z,54.30
2022-12-31T10:16:44.538Z,53.90
2022-12-31T10:19:50.107Z,54.00
2022-12-31T10:22:45.239Z,54.00
2022-12-31T10:25:38.128Z,53.90
2022-12-31T10:28:24.655Z,54.00
2022-12-31T10:31:14.445Z,53.90
2022-12-31T10:33:51.995Z,53.50
2022-12-31T10:36:30.228Z,53.70
2022-12-31T10:39:08.832Z,53.70
2022-12-31T10:42:12.776Z,53.70
2022-12-31T10:45:24.525Z,53.70
2022-12-31T10:48:06.539Z,53.70
2022-12-31T10:50:45.726Z,54.10
2022-12-31T10:53:27.661Z,54.00
2022-12-31T10:56:01.598Z,54.20
2022-12-31T10:58:45.613Z,54.30
2022-12-31T11:01:33.005Z,54.50
2022-12-31T11:04:34.409Z,54.60
2022-12-31T11:07:22.652Z,54.40
2022-12-31T11:10:11.694Z,54.60
2022-12-31T11:13:10.705Z,54.60
2022-12-31T11:16:03.057Z,54.70
2022-12-31T11:18:57.524Z,54.40
2022-12-31T11:21:51.917Z,54.00
2022-12-31T11:25:06.383Z,53.70
2022-12-31T11:28:04.332Z,53.10
2022-12-31T11:31:16.319Z,53.00
2022-12-31T11:34:02.031Z,53.10
2022-12-31T11:36:57.241Z,52.90
2022-12-31T11:39:42.997Z,52.90
2022-12-31T11:42:30.083Z,52.80
2022-12-31T11:45:12.676Z,52.20
2022-12-31T11:51:03.760Z,52.70
2022-12-31T11:53:57.654Z,52.90
2022-12-31T11:56:29.992Z,53.00
2022-12-31T11:58:57.418Z,53.10
2022-12-31T12:01:50.606Z,53.20
2022-12-31T12:04:17.919Z,53.10
2022-12-31T12:06:46.095Z,53.30
2022-12-31T12:09:28.019Z,53.50
2022-12-31T12:12:00.689Z,53.20
2022-12-31T12:14:37.033Z,53.20
2022-12-31T12:17:09.084Z,53.10
2022-12-31T12:19:44.147Z,53.30
2022-12-31T12:22:30.690Z,53.40
2022-12-31T12:25:04.835Z,53.50
2022-12-31T12:27:35.162Z,53.70
2022-12-31T12:30:18.742Z,53.70
2022-12-31T12:33:00.253Z,54.10
2022-12-31T12:35:30.031Z,54.70
2022-12-31T12:38:06.191Z,55.00
2022-12-31T12:40:35.291Z,55.40
2022-12-31T12:43:03.566Z,55.70
2022-12-31T12:45:52.551Z,56.00
2022-12-31T12:48:28.185Z,56.30
2022-12-31T12:50:55.315Z,56.40
2022-12-31T12:53:58.555Z,56.50
2022-12-31T12:56:44.137Z,56.40
2022-12-31T12:59:50.130Z,56.50
2022-12-31T13:02:33.285Z,56.50
2022-12-31T13:05:34.288Z,56.50
2022-12-31T13:08:08.485Z,56.50
2022-12-31T13:10:49.135Z,56.50
2022-12-31T13:13:34.296Z,56.60
2022-12-31T13:16:13.578Z,56.60
2022-12-31T13:19:11.597Z,56.70
2022-12-31T13:21:47.579Z,56.80
2022-12-31T13:24:38.876Z,56.80
2022-12-31T13:27:08.810Z,56.80
2022-12-31T13:29:36.278Z,56.90
2022-12-31T13:32:06.920Z,56.80
2022-12-31T13:34:46.098Z,56.70
2022-12-31T13:37:32.159Z,56.80
2022-12-31T13:40:13.839Z,56.80
2022-12-31T13:42:48.233Z,56.80
2022-12-31T13:45:26.966Z,56.80
2022-12-31T13:47:59.452Z,56.80
2022-12-31T13:50:38.047Z,57.00
2022-12-31T13:53:29.355Z,57.20
2022-12-31T13:56:03.665Z,57.00
2022-12-31T13:58:41.720Z,57.00
2022-12-31T14:01:34.264Z,56.80
2022-12-31T14:04:14.422Z,56.70
2022-12-31T14:06:46.181Z,56.80
2022-12-31T14:09:20.878Z,56.80
2022-12-31T14:12:09.214Z,56.80
2022-12-31T14:15:08.232Z,57.20
2022-12-31T14:17:59.998Z,57.40
2022-12-31T14:20:30.724Z,57.40
2022-12-31T14:23:09.786Z,57.90
2022-12-31T14:25:46.506Z,58.10
2022-12-31T14:28:46.971Z,58.60
2022-12-31T14:31:37.355Z,59.10
2022-12-31T14:34:34.911Z,59.20
2022-12-31T14:37:13.082Z,59.10
2022-12-31T14:40:05.204Z,59.20
2022-12-31T14:42:53.485Z,59.40
2022-12-31T14:45:41.798Z,59.60
2022-12-31T14:48:25.693Z,59.60
2022-12-31T14:50:53.463Z,59.80
2022-12-31T14:53:25.565Z,59.80
2022-12-31T14:56:01.561Z,59.90
2022-12-31T14:58:36.376Z,60.10
2022-12-31T15:01:08.862Z,60.30
2022-12-31T15:03:45.363Z,60.50
2022-12-31T15:06:38.406Z,60.80
2022-12-31T15:09:29.243Z,60.80
2022-12-31T15:12:31.685Z,60.90
2022-12-31T15:15:22.862Z,61.20
2022-12-31T15:18:13.971Z,61.70
2022-12-31T15:21:11.781Z,62.10
2022-12-31T15:23:42.426Z,63.20
2022-12-31T15:26:31.586Z,62.70
2022-12-31T15:29:04.020Z,62.90
2022-12-31T15:31:34.386Z,63.00
2022-12-31T15:34:07.436Z,63.10
2022-12-31T15:36:39.673Z,63.30
2022-12-31T15:39:25.799Z,63.20
2022-12-31T15:42:36.280Z,63.00
2022-12-31T15:44:56.668Z,63.00
2022-12-31T15:47:39.933Z,63.20
2022-12-31T15:50:14.045Z,63.40
2022-12-31T15:52:55.143Z,63.60
2022-12-31T15:55:46.125Z,63.90
2022-12-31T15:58:18.502Z,64.10
2022-12-31T16:01:04.767Z,64.30
2022-12-31T16:03:33.344Z,64.30
2022-12-31T16:06:10.388Z,64.20
2022-12-31T16:08:37.781Z,64.20
2022-12-31T16:11:07.350Z,64.30
2022-12-31T16:13:40.140Z,64.40
2022-12-31T16:16:18.746Z,64.20
2022-12-31T16:18:46.472Z,64.30
2022-12-31T16:21:37.355Z,64.30
2022-12-31T16:24:26.775Z,64.50
2022-12-31T16:26:57.658Z,64.50
2022-12-31T16:29:26.753Z,64.70
2022-12-31T16:31:56.057Z,64.90
2022-12-31T16:34:26.672Z,65.20
2022-12-31T16:37:02.648Z,65.30
2022-12-31T16:39:38.721Z,65.40
2022-12-31T16:42:15.843Z,65.70
2022-12-31T16:44:43.595Z,65.90
2022-12-31T16:47:26.373Z,66.10
2022-12-31T16:50:04.367Z,66.20
2022-12-31T16:52:39.909Z,66.40
2022-12-31T16:55:33.160Z,66.40
2022-12-31T16:58:20.555Z,66.60
2022-12-31T17:00:55.949Z,66.70
2022-12-31T17:03:27.259Z,66.60
2022-12-31T17:06:20.048Z,66.80
2022-12-31T17:08:56.406Z,66.60
2022-12-31T17:11:31.338Z,66.60
2022-12-31T17:14:07.764Z,66.70
2022-12-31T17:16:40.887Z,66.70
2022-12-31T17:19:08.039Z,66.80
2022-12-31T17:21:37.541Z,66.90
2022-12-31T17:24:06.517Z,67.00
2022-12-31T17:26:37.494Z,67.20
2022-12-31T17:29:06.040Z,67.50
2022-12-31T17:31:41.024Z,67.80
2022-12-31T17:34:14.283Z,67.80
2022-12-31T17:37:01.501Z,67.80
2022-12-31T17:39:46.996Z,67.80
2022-12-31T17:42:21.735Z,68.10
2022-12-31T17:44:48.838Z,68.20
2022-12-31T17:47:15.848Z,68.40
2022-12-31T17:49:45.807Z,68.60
2022-12-31T17:52:14.813Z,68.70
2022-12-31T17:54:42.498Z,69.00
2022-12-31T17:57:24.187Z,69.10
2022-12-31T17:59:51.320Z,69.30
2022-12-31T18:02:18.561Z,69.40
2022-12-31T18:04:46.015Z,69.50
2022-12-31T18:07:12.953Z,69.50
2022-12-31T18:09:39.883Z,69.70
2022-12-31T18:12:07.619Z,69.80
2022-12-31T18:14:34.652Z,70.00
2022-12-31T18:17:01.736Z,70.10
2022-12-31T18:22:16.783Z,70.30
2022-12-31T18:24:44.308Z,70.30
2022-12-31T18:27:17.561Z,70.10
2022-12-31T18:29:45.222Z,70.00
2022-12-31T18:32:29.785Z,70.00
2022-12-31T18:34:56.789Z,69.90
2022-12-31T18:37:23.921Z,70.60
2022-12-31T18:39:50.863Z,69.70
2022-12-31T18:42:18.711Z,69.60
2022-12-31T18:44:46.507Z,69.60
2022-12-31T18:47:19.407Z,69.60
2022-12-31T18:49:48.809Z,69.40
2022-12-31T18:52:18.579Z,70.20
2022-12-31T18:54:45.672Z,69.50
2022-12-31T18:57:13.705Z,70.00
2022-12-31T18:59:40.960Z,70.30
2022-12-31T19:02:18.085Z,70.70
2022-12-31T19:04:45.232Z,71.00
2022-12-31T19:07:12.218Z,71.30
2022-12-31T19:09:48.336Z,71.20
2022-12-31T19:12:17.162Z,71.40
2022-12-31T19:14:44.081Z,71.50
2022-12-31T19:19:36.835Z,71.80
2022-12-31T19:22:03.954Z,71.70
2022-12-31T19:24:30.806Z,71.60
2022-12-31T19:26:57.818Z,71.70
2022-12-31T19:29:26.820Z,71.80
2022-12-31T19:31:54.532Z,71.70
2022-12-31T19:34:21.592Z,71.60
2022-12-31T19:36:48.542Z,71.50
2022-12-31T19:39:21.211Z,71.40
2022-12-31T19:41:53.019Z,71.30
2022-12-31T19:44:23.175Z,71.20
2022-12-31T19:46:50.124Z,71.20
2022-12-31T19:49:17.172Z,71.20
2022-12-31T19:51:44.204Z,71.20
2022-12-31T19:54:13.333Z,71.60
2022-12-31T19:56:40.792Z,71.50
2022-12-31T19:59:09.672Z,71.70
2022-12-31T20:01:37.011Z,71.70
2022-12-31T20:04:04.218Z,71.80
2022-12-31T20:06:31.281Z,71.70
2022-12-31T20:08:58.192Z,71.50
2022-12-31T20:11:25.573Z,71.10
2022-12-31T20:13:53.965Z,71.10
2022-12-31T20:16:23.793Z,71.20
2022-12-31T20:18:51.025Z,71.10
2022-12-31T20:21:20.754Z,71.00
2022-12-31T20:23:49.359Z,71.10
2022-12-31T20:26:17.528Z,71.10
2022-12-31T20:28:44.997Z,71.10
2022-12-31T20:31:14.985Z,71.00
2022-12-31T20:33:42.486Z,71.00
2022-12-31T20:36:12.640Z,71.00
2022-12-31T20:38:39.594Z,70.80
2022-12-31T20:41:11.868Z,70.60
2022-12-31T20:43:39.884Z,70.50
2022-12-31T20:46:19.751Z,70.40
2022-12-31T20:48:48.811Z,70.40
2022-12-31T20:51:16.851Z,71.00
2022-12-31T20:53:52.080Z,70.00
2022-12-31T20:56:19.320Z,69.80
2022-12-31T20:58:46.414Z,69.60
2022-12-31T21:01:14.875Z,69.30
2022-12-31T21:06:32.175Z,69.00
2022-12-31T21:09:01.108Z,68.90
2022-12-31T21:11:46.442Z,69.10
2022-12-31T21:14:13.433Z,69.20
2022-12-31T21:16:40.481Z,69.50
2022-12-31T21:19:07.699Z,69.50
2022-12-31T21:21:34.739Z,69.40
2022-12-31T21:24:02.176Z,69.00
2022-12-31T21:26:30.716Z,68.60
2022-12-31T21:28:57.855Z,68.20
2022-12-31T21:31:24.878Z,67.90
2022-12-31T21:33:51.778Z,67.70
2022-12-31T21:36:18.758Z,67.50
2022-12-31T21:38:45.620Z,67.10
2022-12-31T21:41:33.506Z,66.90
2022-12-31T21:44:02.337Z,66.50
2022-12-31T21:46:29.662Z,66.30
2022-12-31T21:49:00.809Z,66.00
2022-12-31T21:51:28.653Z,65.70
2022-12-31T21:53:55.682Z,65.60
2022-12-31T21:56:22.918Z,65.30
2022-12-31T21:59:14.930Z,65.10
2022-12-31T22:02:00.398Z,64.80
2022-12-31T22:05:00.911Z,64.50
2022-12-31T22:07:15.857Z,64.20
2022-12-31T22:09:42.778Z,64.00
2022-12-31T22:12:09.771Z,63.80
2022-12-31T22:14:36.702Z,63.70
2022-12-31T22:17:03.726Z,63.50
2022-12-31T22:19:30.687Z,63.30
2022-12-31T22:21:57.615Z,63.20
2022-12-31T22:24:24.548Z,63.10
2022-12-31T22:26:53.870Z,63.00
2022-12-31T22:29:21.534Z,62.90
2022-12-31T22:31:48.419Z,62.90
2022-12-31T22:34:15.543Z,62.70
2022-12-31T22:36:42.500Z,62.70
2022-12-31T22:39:43.590Z,62.60
2022-12-31T22:42:01.707Z,62.60
2022-12-31T22:44:28.691Z,62.60
2022-12-31T22:46:56.328Z,62.50
2022-12-31T22:49:23.618Z,62.50
2022-12-31T22:51:56.390Z,62.40
2022-12-31T22:54:25.897Z,62.40
2022-12-31T22:56:52.941Z,62.60
2022-12-31T22:59:19.982Z,62.60
2022-12-31T23:01:47.377Z,62.60
2022-12-31T23:04:14.406Z,62.60
2022-12-31T23:06:44.145Z,62.50
2022-12-31T23:09:31.181Z,62.50
2022-12-31T23:11:58.467Z,62.50
2022-12-31T23:14:43.890Z,62.50
2022-12-31T23:17:42.448Z,62.40
2022-12-31T23:20:46.285Z,62.40
2022-12-31T23:23:15.812Z,62.30
2022-12-31T23:25:51.473Z,62.40
2022-12-31T23:28:21.976Z,62.50
2022-12-31T23:30:51.304Z,62.50
2022-12-31T23:33:24.497Z,62.40
2022-12-31T23:36:02.806Z,62.10
2022-12-31T23:38:29.802Z,62.20
2022-12-31T23:40:56.741Z,62.90
2022-12-31T23:43:23.676Z,62.00
2022-12-31T23:45:51.674Z,61.80
2022-12-31T23:48:18.690Z,61.70
2022-12-31T23:50:52.689Z,61.60
2022-12-31T23:53:20.645Z,61.70
2022-12-31T23:55:47.564Z,61.90
2022-12-31T23:58:15.409Z,62.10
